createdAt,value
2018-12-30T00:01:42.380Z,17.60
2018-12-30T00:04:10.881Z,17.17
2018-12-30T00:06:40.207Z,17.57
2018-12-30T00:09:09.092Z,17.50
2018-12-30T00:11:37.915Z,17.50
2018-12-30T00:14:06.436Z,19.33
2018-12-30T00:16:34.877Z,18.83
2018-12-30T00:19:03.412Z,16.73
2018-12-30T00:21:31.909Z,19.77
2018-12-30T00:24:01.169Z,18.97
2018-12-30T00:26:29.644Z,20.23
2018-12-30T00:28:58.625Z,20.17
2018-12-30T00:31:27.076Z,18.90
2018-12-30T00:33:55.587Z,19.97
2018-12-30T00:36:24.103Z,19.37
2018-12-30T00:38:52.627Z,18.67
2018-12-30T00:41:21.136Z,19.13
2018-12-30T00:43:49.870Z,21.93
2018-12-30T00:46:18.378Z,20.67
2018-12-30T00:48:46.884Z,19.50
2018-12-30T00:51:17.227Z,22.17
2018-12-30T00:53:45.632Z,21.13
2018-12-30T00:56:14.163Z,21.80
2018-12-30T00:58:42.664Z,21.13
2018-12-30T01:01:11.180Z,20.50
2018-12-30T01:03:39.701Z,21.33
2018-12-30T01:06:08.203Z,19.60
2018-12-30T01:08:36.656Z,20.93
2018-12-30T01:11:05.470Z,21.07
2018-12-30T01:13:33.981Z,20.27
2018-12-30T01:16:02.505Z,20.40
2018-12-30T01:18:31.019Z,21.27
2018-12-30T01:20:59.661Z,20.67
2018-12-30T01:23:28.180Z,21.17
2018-12-30T01:25:58.249Z,18.87
2018-12-30T01:28:26.754Z,19.33
2018-12-30T01:30:55.180Z,19.60
2018-12-30T01:33:23.712Z,18.00
2018-12-30T01:35:52.221Z,19.33
2018-12-30T01:38:20.920Z,18.73
2018-12-30T01:40:49.446Z,18.00
2018-12-30T01:43:17.952Z,19.43
2018-12-30T01:45:46.399Z,19.63
2018-12-30T01:48:14.916Z,20.50
2018-12-30T01:50:43.429Z,19.03
2018-12-30T01:53:11.949Z,18.63
2018-12-30T01:55:40.457Z,18.40
2018-12-30T01:58:08.994Z,19.93
2018-12-30T02:00:37.497Z,18.93
2018-12-30T02:03:05.919Z,20.83
2018-12-30T02:05:34.939Z,19.10
2018-12-30T02:08:03.442Z,19.77
2018-12-30T02:10:31.969Z,20.33
2018-12-30T02:13:00.484Z,18.37
2018-12-30T02:15:29.352Z,14.77
2018-12-30T02:17:58.153Z,19.37
2018-12-30T02:20:26.722Z,19.17
2018-12-30T02:22:55.251Z,18.90
2018-12-30T02:25:23.756Z,18.00
2018-12-30T02:27:52.189Z,19.57
2018-12-30T02:30:20.711Z,19.53
2018-12-30T02:32:49.228Z,18.27
2018-12-30T02:35:17.684Z,18.47
2018-12-30T02:37:46.194Z,18.97
2018-12-30T02:40:14.776Z,18.07
2018-12-30T02:42:43.310Z,19.33
2018-12-30T02:45:11.843Z,17.30
2018-12-30T02:47:40.352Z,16.07
2018-12-30T02:50:08.864Z,16.30
2018-12-30T02:52:37.374Z,16.40
2018-12-30T02:55:06.136Z,16.43
2018-12-30T02:57:34.692Z,16.27
2018-12-30T03:00:03.127Z,15.90
2018-12-30T03:02:31.688Z,15.33
2018-12-30T03:05:00.421Z,16.00
2018-12-30T03:07:28.946Z,16.27
2018-12-30T03:09:57.373Z,16.33
2018-12-30T03:12:25.902Z,17.03
2018-12-30T03:14:54.408Z,15.43
2018-12-30T03:17:22.928Z,15.10
2018-12-30T03:19:51.372Z,16.23
2018-12-30T03:22:19.818Z,15.57
2018-12-30T03:24:48.244Z,15.43
2018-12-30T03:27:16.703Z,15.53
2018-12-30T03:29:45.124Z,17.37
2018-12-30T03:32:13.573Z,15.63
2018-12-30T03:34:42.102Z,15.93
2018-12-30T03:37:10.524Z,16.37
2018-12-30T03:39:39.108Z,16.17
2018-12-30T03:42:07.545Z,15.63
2018-12-30T03:44:35.974Z,15.10
2018-12-30T03:47:04.485Z,16.50
2018-12-30T03:49:32.995Z,16.37
2018-12-30T03:52:08.256Z,17.53
2018-12-30T03:54:31.649Z,16.50
2018-12-30T03:57:00.104Z,15.83
2018-12-30T03:59:28.534Z,15.67
2018-12-30T04:01:56.961Z,15.53
2018-12-30T04:04:25.417Z,14.60
2018-12-30T04:06:53.848Z,15.57
2018-12-30T04:09:22.282Z,15.70
2018-12-30T04:11:50.744Z,15.53
2018-12-30T04:14:19.241Z,14.13
2018-12-30T04:16:47.675Z,15.30
2018-12-30T04:19:16.129Z,15.20
2018-12-30T04:21:44.651Z,14.07
2018-12-30T04:24:13.093Z,15.30
2018-12-30T04:26:41.563Z,15.97
2018-12-30T04:29:10.070Z,15.60
2018-12-30T04:31:38.512Z,15.40
2018-12-30T04:34:07.008Z,15.80
2018-12-30T04:36:35.432Z,15.13
2018-12-30T04:39:05.409Z,15.90
2018-12-30T04:41:33.869Z,14.13
2018-12-30T04:44:02.376Z,14.97
2018-12-30T04:46:30.809Z,13.23
2018-12-30T04:48:59.257Z,15.37
2018-12-30T04:51:27.716Z,14.57
2018-12-30T04:53:56.140Z,15.23
2018-12-30T04:56:24.589Z,14.20
2018-12-30T04:58:53.022Z,15.13
2018-12-30T05:01:21.442Z,14.13
2018-12-30T05:03:49.892Z,14.37
2018-12-30T05:06:18.320Z,12.97
2018-12-30T05:08:46.768Z,12.70
2018-12-30T05:11:15.596Z,13.53
2018-12-30T05:13:44.004Z,12.97
2018-12-30T05:16:12.451Z,12.43
2018-12-30T05:18:41.482Z,13.13
2018-12-30T05:21:09.985Z,12.33
2018-12-30T05:23:38.460Z,11.93
2018-12-30T05:26:06.894Z,13.53
2018-12-30T05:28:35.429Z,13.10
2018-12-30T05:31:03.947Z,12.33
2018-12-30T05:33:32.377Z,13.67
2018-12-30T05:36:00.811Z,12.20
2018-12-30T05:38:29.258Z,13.63
2018-12-30T05:40:57.679Z,12.70
2018-12-30T05:43:26.132Z,13.90
2018-12-30T05:45:54.580Z,13.30
2018-12-30T05:48:23.011Z,13.07
2018-12-30T05:50:51.446Z,12.63
2018-12-30T05:53:19.893Z,14.20
2018-12-30T05:55:48.404Z,10.93
2018-12-30T05:58:16.951Z,13.40
2018-12-30T06:00:45.540Z,13.83
2018-12-30T06:03:13.974Z,12.17
2018-12-30T06:05:42.428Z,13.27
2018-12-30T06:08:10.884Z,12.70
2018-12-30T06:10:39.336Z,11.50
2018-12-30T06:13:07.772Z,12.97
2018-12-30T06:15:36.201Z,13.00
2018-12-30T06:18:04.648Z,13.83
2018-12-30T06:20:33.073Z,12.83
2018-12-30T06:23:01.506Z,12.40
2018-12-30T06:25:29.958Z,11.67
2018-12-30T06:27:58.384Z,10.77
2018-12-30T06:30:26.808Z,11.10
2018-12-30T06:32:55.267Z,13.00
2018-12-30T06:35:23.704Z,10.97
2018-12-30T06:37:52.196Z,12.50
2018-12-30T06:40:20.644Z,12.47
2018-12-30T06:42:49.083Z,12.10
2018-12-30T06:45:17.512Z,12.13
2018-12-30T06:47:45.967Z,12.43
2018-12-30T06:50:14.408Z,12.50
2018-12-30T06:52:42.848Z,11.87
2018-12-30T06:55:11.299Z,11.27
2018-12-30T06:57:39.729Z,11.50
2018-12-30T07:00:08.186Z,11.63
2018-12-30T07:02:36.656Z,12.87
2018-12-30T07:05:05.523Z,12.30
2018-12-30T07:07:33.948Z,13.03
2018-12-30T07:10:02.428Z,12.83
2018-12-30T07:12:30.852Z,12.77
2018-12-30T07:14:59.300Z,12.03
2018-12-30T07:17:27.739Z,13.53
2018-12-30T07:19:56.202Z,12.67
2018-12-30T07:22:24.625Z,13.30
2018-12-30T07:24:53.056Z,12.57
2018-12-30T07:27:21.660Z,11.97
2018-12-30T07:29:50.112Z,12.60
2018-12-30T07:32:18.569Z,12.13
2018-12-30T07:34:47.047Z,12.47
2018-12-30T07:37:15.490Z,12.07
2018-12-30T07:39:44.000Z,12.47
2018-12-30T07:42:12.451Z,14.27
2018-12-30T07:44:40.884Z,13.87
2018-12-30T07:47:09.327Z,12.63
2018-12-30T07:49:37.805Z,12.13
2018-12-30T07:52:06.245Z,11.87
2018-12-30T07:54:34.673Z,14.17
2018-12-30T07:57:03.130Z,13.77
2018-12-30T07:59:31.596Z,12.63
2018-12-30T08:02:00.046Z,13.60
2018-12-30T08:04:28.560Z,12.60
2018-12-30T08:06:56.991Z,12.47
2018-12-30T08:09:25.441Z,12.47
2018-12-30T08:11:53.869Z,13.87
2018-12-30T08:14:22.381Z,12.40
2018-12-30T08:16:50.823Z,12.47
2018-12-30T08:19:19.251Z,12.80
2018-12-30T08:21:47.802Z,11.43
2018-12-30T08:24:16.313Z,12.33
2018-12-30T08:26:44.833Z,11.73
2018-12-30T08:29:13.302Z,12.13
2018-12-30T08:31:41.808Z,13.53
2018-12-30T08:34:10.248Z,11.30
2018-12-30T08:36:38.697Z,12.17
2018-12-30T08:39:07.576Z,11.83
2018-12-30T08:41:36.012Z,11.70
2018-12-30T08:44:04.468Z,11.60
2018-12-30T08:46:32.918Z,11.67
2018-12-30T08:49:01.342Z,11.07
2018-12-30T08:51:29.792Z,12.63
2018-12-30T08:53:58.312Z,11.30
2018-12-30T08:56:26.740Z,11.50
2018-12-30T08:58:55.188Z,11.87
2018-12-30T09:01:28.436Z,11.00
2018-12-30T09:03:53.796Z,11.30
2018-12-30T09:06:22.262Z,12.17
2018-12-30T09:08:50.769Z,11.93
2018-12-30T09:11:19.284Z,11.53
2018-12-30T09:13:47.744Z,10.47
2018-12-30T09:16:16.294Z,11.43
2018-12-30T09:18:44.711Z,11.77
2018-12-30T09:21:13.168Z,11.30
2018-12-30T09:23:41.593Z,10.40
2018-12-30T09:26:10.030Z,11.37
2018-12-30T09:28:38.511Z,10.03
2018-12-30T09:31:07.015Z,10.67
2018-12-30T09:33:35.531Z,10.80
2018-12-30T09:36:04.258Z,10.53
2018-12-30T09:38:32.706Z,10.83
2018-12-30T09:41:01.161Z,11.20
2018-12-30T09:43:29.686Z,11.97
2018-12-30T09:45:58.111Z,11.10
2018-12-30T09:48:33.576Z,12.23
2018-12-30T09:50:56.889Z,11.60
2018-12-30T09:53:25.428Z,10.23
2018-12-30T09:55:53.853Z,10.13
2018-12-30T09:58:22.304Z,10.50
2018-12-30T10:00:50.815Z,9.93
2018-12-30T10:03:19.248Z,10.20
2018-12-30T10:05:47.694Z,9.70
2018-12-30T10:08:16.128Z,11.20
2018-12-30T10:10:44.586Z,10.13
2018-12-30T10:13:13.087Z,10.87
2018-12-30T10:15:41.659Z,9.77
2018-12-30T10:18:10.117Z,10.63
2018-12-30T10:20:38.540Z,9.87
2018-12-30T10:23:06.980Z,10.77
2018-12-30T10:25:35.456Z,9.90
2018-12-30T10:28:03.991Z,9.27
2018-12-30T10:30:32.545Z,9.20
2018-12-30T10:33:01.007Z,8.77
2018-12-30T10:35:29.424Z,9.33
2018-12-30T10:37:57.860Z,10.20
2018-12-30T10:40:26.320Z,8.63
2018-12-30T10:42:54.740Z,9.93
2018-12-30T10:45:23.175Z,8.30
2018-12-30T10:47:51.652Z,7.87
2018-12-30T10:50:20.094Z,9.03
2018-12-30T10:52:48.529Z,8.13
2018-12-30T10:55:16.974Z,8.23
2018-12-30T10:57:45.402Z,8.70
2018-12-30T11:00:13.904Z,8.47
2018-12-30T11:02:42.592Z,8.50
2018-12-30T11:05:11.065Z,8.93
2018-12-30T11:07:39.602Z,9.20
2018-12-30T11:10:08.104Z,9.07
2018-12-30T11:12:36.535Z,9.97
2018-12-30T11:15:06.048Z,10.33
2018-12-30T11:17:34.511Z,9.20
2018-12-30T11:20:03.038Z,9.43
2018-12-30T11:22:31.486Z,8.73
2018-12-30T11:24:59.946Z,10.47
2018-12-30T11:27:28.368Z,9.83
2018-12-30T11:29:56.818Z,9.67
2018-12-30T11:32:25.713Z,10.03
2018-12-30T11:34:54.416Z,9.57
2018-12-30T11:37:22.852Z,10.10
2018-12-30T11:39:51.367Z,9.60
2018-12-30T11:42:19.811Z,9.13
2018-12-30T11:44:48.238Z,9.53
2018-12-30T11:47:16.707Z,9.00
2018-12-30T11:49:45.139Z,10.20
2018-12-30T11:52:13.563Z,10.03
2018-12-30T11:54:42.034Z,10.17
2018-12-30T11:57:10.482Z,9.90
2018-12-30T11:59:38.916Z,9.73
2018-12-30T12:02:07.404Z,10.63
2018-12-30T12:04:35.832Z,10.07
2018-12-30T12:07:04.272Z,9.57
2018-12-30T12:09:32.773Z,9.43
2018-12-30T12:12:01.262Z,10.70
2018-12-30T12:14:29.741Z,10.27
2018-12-30T12:16:58.184Z,10.30
2018-12-30T12:19:26.652Z,9.50
2018-12-30T12:21:55.078Z,10.47
2018-12-30T12:24:24.436Z,9.70
2018-12-30T12:26:53.332Z,10.27
2018-12-30T12:29:21.768Z,11.10
2018-12-30T12:31:50.269Z,10.63
2018-12-30T12:34:18.737Z,11.70
2018-12-30T12:36:47.268Z,11.07
2018-12-30T12:39:15.744Z,10.33
2018-12-30T12:41:44.212Z,10.53
2018-12-30T12:44:12.653Z,10.57
2018-12-30T12:46:41.109Z,10.47
2018-12-30T12:49:09.653Z,11.00
2018-12-30T12:51:38.161Z,11.67
2018-12-30T12:54:06.593Z,10.97
2018-12-30T12:56:35.069Z,12.27
2018-12-30T12:59:03.555Z,10.37
2018-12-30T13:01:31.997Z,13.23
2018-12-30T13:04:00.452Z,11.80
2018-12-30T13:06:28.890Z,10.77
2018-12-30T13:08:57.341Z,10.57
2018-12-30T13:11:25.779Z,10.63
2018-12-30T13:13:54.201Z,11.07
2018-12-30T13:16:22.661Z,11.60
2018-12-30T13:18:51.097Z,12.00
2018-12-30T13:21:19.549Z,11.93
2018-12-30T13:23:47.984Z,12.03
2018-12-30T13:26:16.412Z,11.80
2018-12-30T13:28:44.872Z,10.13
2018-12-30T13:31:13.383Z,11.63
2018-12-30T13:33:41.831Z,11.03
2018-12-30T13:36:10.956Z,12.70
2018-12-30T13:38:39.403Z,11.47
2018-12-30T13:41:07.837Z,12.43
2018-12-30T13:43:36.461Z,12.77
2018-12-30T13:46:04.967Z,12.33
2018-12-30T13:48:33.426Z,12.10
2018-12-30T13:51:01.876Z,12.33
2018-12-30T13:53:30.376Z,12.23
2018-12-30T13:55:58.806Z,11.13
2018-12-30T13:58:27.253Z,11.23
2018-12-30T14:00:55.748Z,13.10
2018-12-30T14:03:24.175Z,12.10
2018-12-30T14:05:52.620Z,13.20
2018-12-30T14:08:21.055Z,13.87
2018-12-30T14:10:49.540Z,12.63
2018-12-30T14:13:18.042Z,12.00
2018-12-30T14:15:50.779Z,12.67
2018-12-30T14:18:16.654Z,12.53
2018-12-30T14:20:45.080Z,15.43
2018-12-30T14:23:13.537Z,14.47
2018-12-30T14:25:41.970Z,17.10
2018-12-30T14:28:10.569Z,16.23
2018-12-30T14:30:39.019Z,19.93
2018-12-30T14:33:07.536Z,17.70
2018-12-30T14:35:35.957Z,18.57
2018-12-30T14:38:04.431Z,17.17
2018-12-30T14:40:32.918Z,16.63
2018-12-30T14:43:01.359Z,16.13
2018-12-30T14:45:29.814Z,15.07
2018-12-30T14:47:58.252Z,15.47
2018-12-30T14:50:26.754Z,15.33
2018-12-30T14:52:55.203Z,14.03
2018-12-30T14:55:23.645Z,14.10
2018-12-30T14:57:52.080Z,13.80
2018-12-30T15:00:20.540Z,12.27
2018-12-30T15:02:49.028Z,12.73
2018-12-30T15:05:17.453Z,13.43
2018-12-30T15:07:45.911Z,13.60
2018-12-30T15:10:14.342Z,12.60
2018-12-30T15:12:42.792Z,14.03
2018-12-30T15:15:11.225Z,12.57
2018-12-30T15:17:39.677Z,12.90
2018-12-30T15:20:08.384Z,12.57
2018-12-30T15:22:36.854Z,13.90
2018-12-30T15:25:11.514Z,12.37
2018-12-30T15:27:36.436Z,12.90
2018-12-30T15:30:06.904Z,12.33
2018-12-30T15:32:35.426Z,12.20
2018-12-30T15:35:04.999Z,11.77
2018-12-30T15:37:33.434Z,11.30
2018-12-30T15:40:01.886Z,12.37
2018-12-30T15:42:30.315Z,13.27
2018-12-30T15:44:58.750Z,13.37
2018-12-30T15:47:27.280Z,11.63
2018-12-30T15:49:55.713Z,10.93
2018-12-30T15:52:24.145Z,12.10
2018-12-30T15:54:53.270Z,10.90
2018-12-30T15:57:21.708Z,12.43
2018-12-30T15:59:50.146Z,11.70
2018-12-30T16:02:18.628Z,10.87
2018-12-30T16:04:47.080Z,11.47
2018-12-30T16:07:15.509Z,12.77
2018-12-30T16:09:43.968Z,12.87
2018-12-30T16:12:12.480Z,14.07
2018-12-30T16:14:41.032Z,13.17
2018-12-30T16:17:09.461Z,11.97
2018-12-30T16:19:37.911Z,10.73
2018-12-30T16:22:06.360Z,12.27
2018-12-30T16:24:34.796Z,12.53
2018-12-30T16:27:04.569Z,12.50
2018-12-30T16:29:33.179Z,12.50
2018-12-30T16:32:01.621Z,11.60
2018-12-30T16:34:30.076Z,11.63
2018-12-30T16:36:58.516Z,12.17
2018-12-30T16:39:26.949Z,12.57
2018-12-30T16:41:55.401Z,11.90
2018-12-30T16:44:23.850Z,13.90
2018-12-30T16:46:52.365Z,12.20
2018-12-30T16:49:20.816Z,13.00
2018-12-30T16:51:49.270Z,11.87
2018-12-30T16:54:17.783Z,12.40
2018-12-30T16:56:46.229Z,13.73
2018-12-30T16:59:14.732Z,11.50
2018-12-30T17:01:43.169Z,12.00
2018-12-30T17:04:11.615Z,12.93
2018-12-30T17:06:40.057Z,11.43
2018-12-30T17:09:08.529Z,12.83
2018-12-30T17:11:37.003Z,14.83
2018-12-30T17:14:05.464Z,12.67
2018-12-30T17:16:33.898Z,12.87
2018-12-30T17:19:02.361Z,12.30
2018-12-30T17:21:30.785Z,12.67
2018-12-30T17:23:59.213Z,13.67
2018-12-30T17:26:27.688Z,12.70
2018-12-30T17:28:56.141Z,12.73
2018-12-30T17:31:24.575Z,13.83
2018-12-30T17:33:53.056Z,12.33
2018-12-30T17:36:21.528Z,13.97
2018-12-30T17:38:49.961Z,13.77
2018-12-30T17:41:18.477Z,14.10
2018-12-30T17:43:46.905Z,15.30
2018-12-30T17:46:18.377Z,14.90
2018-12-30T17:48:45.520Z,14.50
2018-12-30T17:51:13.945Z,14.40
2018-12-30T17:53:42.376Z,15.37
2018-12-30T17:56:10.861Z,14.10
2018-12-30T17:58:39.288Z,14.63
2018-12-30T18:01:07.809Z,13.40
2018-12-30T18:03:36.420Z,13.77
2018-12-30T18:06:04.847Z,13.93
2018-12-30T18:08:33.294Z,13.90
2018-12-30T18:11:01.739Z,14.83
2018-12-30T18:13:30.204Z,11.77
2018-12-30T18:15:58.637Z,14.20
2018-12-30T18:18:27.080Z,15.60
2018-12-30T18:20:55.533Z,14.90
2018-12-30T18:23:23.964Z,14.37
2018-12-30T18:25:58.601Z,14.37
2018-12-30T18:28:22.570Z,14.83
2018-12-30T18:30:51.001Z,15.50
2018-12-30T18:33:19.428Z,14.23
2018-12-30T18:35:47.885Z,12.27
2018-12-30T18:38:16.403Z,14.67
2018-12-30T18:40:44.909Z,14.03
2018-12-30T18:43:13.445Z,13.40
2018-12-30T18:45:41.962Z,14.87
2018-12-30T18:48:10.385Z,15.50
2018-12-30T18:50:38.833Z,14.97
2018-12-30T18:53:07.265Z,15.47
2018-12-30T18:55:35.809Z,14.40
2018-12-30T18:58:04.246Z,13.00
2018-12-30T19:00:32.818Z,13.80
2018-12-30T19:03:01.265Z,14.30
2018-12-30T19:05:29.712Z,15.40
2018-12-30T19:07:58.149Z,15.50
2018-12-30T19:10:26.619Z,13.93
2018-12-30T19:12:55.122Z,15.43
2018-12-30T19:15:23.571Z,14.10
2018-12-30T19:17:52.028Z,14.37
2018-12-30T19:20:20.535Z,13.50
2018-12-30T19:22:48.964Z,13.67
2018-12-30T19:25:17.416Z,14.37
2018-12-30T19:27:45.840Z,14.97
2018-12-30T19:30:14.279Z,18.57
2018-12-30T19:32:42.719Z,14.47
2018-12-30T19:35:11.144Z,15.57
2018-12-30T19:37:39.571Z,15.37
2018-12-30T19:40:10.270Z,14.53
2018-12-30T19:42:38.696Z,14.57
2018-12-30T19:45:07.673Z,15.10
2018-12-30T19:47:36.132Z,13.47
2018-12-30T19:50:05.909Z,14.80
2018-12-30T19:52:34.342Z,14.77
2018-12-30T19:55:02.811Z,13.20
2018-12-30T19:57:31.243Z,13.70
2018-12-30T19:59:59.677Z,14.73
2018-12-30T20:02:28.700Z,14.83
2018-12-30T20:04:57.177Z,14.30
2018-12-30T20:07:25.656Z,14.83
2018-12-30T20:09:54.098Z,14.43
2018-12-30T20:12:22.735Z,14.63
2018-12-30T20:14:51.168Z,14.00
2018-12-30T20:17:19.677Z,17.63
2018-12-30T20:19:48.132Z,16.53
2018-12-30T20:22:16.567Z,18.37
2018-12-30T20:24:45.018Z,18.20
2018-12-30T20:27:13.464Z,16.97
2018-12-30T20:29:41.907Z,17.67
2018-12-30T20:32:10.345Z,25.13
2018-12-30T20:34:38.859Z,17.40
2018-12-30T20:37:07.296Z,17.97
2018-12-30T20:39:35.777Z,15.77
2018-12-30T20:42:04.259Z,19.73
2018-12-30T20:44:32.692Z,17.17
2018-12-30T20:47:01.123Z,16.03
2018-12-30T20:49:29.589Z,17.23
2018-12-30T20:51:58.037Z,15.57
2018-12-30T20:54:26.600Z,15.50
2018-12-30T20:56:55.052Z,17.03
2018-12-30T20:59:23.560Z,14.90
2018-12-30T21:01:52.082Z,17.00
2018-12-30T21:04:20.620Z,17.93
2018-12-30T21:06:49.076Z,16.27
2018-12-30T21:09:17.530Z,16.03
2018-12-30T21:11:45.959Z,16.93
2018-12-30T21:14:14.404Z,16.60
2018-12-30T21:16:42.842Z,16.47
2018-12-30T21:19:11.300Z,16.67
2018-12-30T21:21:39.740Z,17.47
2018-12-30T21:24:08.188Z,16.83
2018-12-30T21:26:36.715Z,16.83
2018-12-30T21:29:05.224Z,16.47
2018-12-30T21:31:33.754Z,15.70
2018-12-30T21:34:02.221Z,15.87
2018-12-30T21:36:30.673Z,16.33
2018-12-30T21:38:59.102Z,16.53
2018-12-30T21:41:27.572Z,16.17
2018-12-30T21:43:56.077Z,16.40
2018-12-30T21:46:24.512Z,16.93
2018-12-30T21:48:52.964Z,15.47
2018-12-30T21:51:21.411Z,15.90
2018-12-30T21:53:49.846Z,17.83
2018-12-30T21:56:18.370Z,15.33
2018-12-30T21:58:46.804Z,16.37
2018-12-30T22:01:15.246Z,18.03
2018-12-30T22:03:43.717Z,17.87
2018-12-30T22:06:12.169Z,17.43
2018-12-30T22:08:40.669Z,16.73
2018-12-30T22:11:09.124Z,15.67
2018-12-30T22:13:37.570Z,14.73
2018-12-30T22:16:06.074Z,15.20
2018-12-30T22:18:34.632Z,15.77
2018-12-30T22:21:03.149Z,15.53
2018-12-30T22:23:31.739Z,17.30
2018-12-30T22:26:00.185Z,15.87
2018-12-30T22:28:28.621Z,15.57
2018-12-30T22:30:57.056Z,14.57
2018-12-30T22:33:25.511Z,17.20
2018-12-30T22:35:53.940Z,16.37
2018-12-30T22:38:22.385Z,16.30
2018-12-30T22:40:50.836Z,15.43
2018-12-30T22:43:19.276Z,16.47
2018-12-30T22:45:47.714Z,16.67
2018-12-30T22:48:16.165Z,18.07
2018-12-30T22:50:45.777Z,18.40
2018-12-30T22:53:14.368Z,17.57
2018-12-30T22:55:42.844Z,18.30
2018-12-30T22:58:11.291Z,16.83
2018-12-30T23:00:41.366Z,16.77
2018-12-30T23:03:09.900Z,17.93
2018-12-30T23:05:38.409Z,18.47
2018-12-30T23:08:07.408Z,16.37
2018-12-30T23:10:35.879Z,19.20
2018-12-30T23:13:04.321Z,18.30
2018-12-30T23:15:32.823Z,16.40
2018-12-30T23:18:01.277Z,18.80
2018-12-30T23:20:29.704Z,17.87
2018-12-30T23:22:58.140Z,18.00
2018-12-30T23:25:26.605Z,16.90
2018-12-30T23:27:55.036Z,19.83
2018-12-30T23:30:23.469Z,16.20
2018-12-30T23:32:51.924Z,18.10
2018-12-30T23:35:20.383Z,18.03
2018-12-30T23:37:48.829Z,18.00
2018-12-30T23:40:17.307Z,17.93
2018-12-30T23:42:45.741Z,16.67
2018-12-30T23:45:14.191Z,17.27
2018-12-30T23:47:42.649Z,16.93
2018-12-30T23:50:11.092Z,17.27
2018-12-30T23:52:39.558Z,17.13
2018-12-30T23:55:08.099Z,14.43
2018-12-30T23:57:36.528Z,17.23
